Washington, Oklahoma
Current Conditions -  °F | °C
As of 1:35 PM on Thursday 23 Oct 2014 (Local Time) from KOUN Reporting Station
Scattered Clouds Scattered Clouds  
Wind Chill: 73°   Ceiling: Unl
Heat Index: 73°   Visibility: 10mi
Dew Point: 61°   Wind: 7mph
Humidity: 65%   Direction: 190°S
Pressure: 30.11"   Gusts: NA
Location:  35.06°N, 97.48°W
Report Text: KOUN 231835Z AUTO 19006KT 10SM SCT035 SCT055 23/16 A3011 RMK AO2 LTG DSNT NW
Loading
Personal Weather Stations






























Interactive Weather Map
Tropical Storm Tracking
New forecast layout! Learn more

10-Day Weather Forecast

Advertisements
Track Severe Weather on mobile